Time;durP1;ratioP1;P1;durP2;ratioP2;P2;SDS_P1;SDS_P2;PMS_P1;PMS_P2;Temp;Humidity;BMP_temperature;BMP_pressure;BME280_temperature;BME280_humidity;BME280_pressure;Samples;Min_cycle;Max_cycle;Signal;HPM_P1;HPM_P2
2023/02/02 00:00:25;;;;;;;9.43;3.25;;;7.70;99.90;;;;;;2095283;28;20102;-72
2023/02/02 00:01:26;;;;;;;9.15;3.13;;;7.70;99.90;;;;;;2094452;28;20029;-72
2023/02/02 00:02:27;;;;;;;6.57;2.90;;;7.80;99.90;;;;;;2092609;28;20028;-72
2023/02/02 00:03:29;;;;;;;10.02;3.20;;;7.80;99.90;;;;;;2092540;28;20032;-72
2023/02/02 00:04:35;;;;;;;5.78;2.83;;;7.80;99.90;;;;;;2092335;28;20025;-72
2023/02/02 00:05:35;;;;;;;6.10;2.45;;;7.80;99.90;;;;;;2091158;28;20101;-72
2023/02/02 00:06:36;;;;;;;10.25;3.25;;;7.80;99.90;;;;;;2093375;28;20081;-72
2023/02/02 00:07:36;;;;;;;8.25;2.70;;;7.80;99.90;;;;;;2093307;28;20036;-72
2023/02/02 00:08:38;;;;;;;5.45;2.67;;;7.80;99.90;;;;;;2094132;28;20036;-72
2023/02/02 00:09:38;;;;;;;9.68;2.80;;;7.80;99.90;;;;;;2092603;28;20047;-72
2023/02/02 00:10:39;;;;;;;6.65;2.75;;;7.80;99.90;;;;;;2094461;28;20048;-72
2023/02/02 00:11:40;;;;;;;7.32;2.97;;;7.80;99.90;;;;;;2095593;28;20035;-72
2023/02/02 00:12:41;;;;;;;8.70;2.65;;;7.80;99.90;;;;;;2095358;28;20039;-72
2023/02/02 00:13:41;;;;;;;7.70;2.75;;;7.80;99.90;;;;;;2095073;28;20542;-72
2023/02/02 00:14:42;;;;;;;6.40;2.53;;;7.80;99.90;;;;;;2094077;28;20025;-72
2023/02/02 00:15:43;;;;;;;11.27;2.50;;;7.80;99.90;;;;;;2091652;28;20021;-72
2023/02/02 00:16:45;;;;;;;11.00;2.75;;;7.80;99.90;;;;;;2093187;28;20029;-72
2023/02/02 00:17:45;;;;;;;8.55;3.33;;;7.80;99.90;;;;;;2092234;28;20036;-72
2023/02/02 00:18:47;;;;;;;7.75;2.20;;;7.80;99.90;;;;;;2094803;28;20070;-72
2023/02/02 00:19:48;;;;;;;9.32;4.53;;;7.80;99.90;;;;;;2094898;28;20111;-72
2023/02/02 00:20:49;;;;;;;16.77;8.38;;;7.80;99.90;;;;;;2094033;28;20033;-72
2023/02/02 00:21:50;;;;;;;23.35;10.70;;;7.90;99.90;;;;;;2091281;28;20051;-72
2023/02/02 00:22:50;;;;;;;16.73;6.80;;;7.80;99.90;;;;;;2092600;28;20028;-72
2023/02/02 00:23:52;;;;;;;9.77;3.88;;;7.80;99.90;;;;;;2091988;28;20025;-72
2023/02/02 00:24:52;;;;;;;10.63;3.13;;;7.80;99.90;;;;;;2092504;28;20108;-72
2023/02/02 00:25:52;;;;;;;10.10;3.25;;;7.80;99.90;;;;;;2094921;28;20503;-72
2023/02/02 00:26:55;;;;;;;9.60;2.80;;;7.80;99.90;;;;;;2091254;28;20075;-72
2023/02/02 00:27:56;;;;;;;8.98;2.97;;;7.80;99.90;;;;;;2089764;28;20072;-72
2023/02/02 00:28:57;;;;;;;11.25;3.20;;;7.80;99.90;;;;;;2092532;28;20027;-72
2023/02/02 00:29:57;;;;;;;7.60;2.80;;;7.80;99.90;;;;;;2091636;28;20033;-72
2023/02/02 00:30:58;;;;;;;10.85;3.97;;;7.80;99.90;;;;;;2093453;28;20071;-72
2023/02/02 00:31:58;;;;;;;11.18;4.75;;;7.80;99.90;;;;;;2092725;28;20108;-72
2023/02/02 00:32:59;;;;;;;13.43;5.00;;;7.80;99.90;;;;;;2092828;28;20103;-72
2023/02/02 00:33:59;;;;;;;11.70;3.58;;;7.80;99.90;;;;;;2091998;28;20024;-72
2023/02/02 00:35:00;;;;;;;9.02;2.88;;;7.80;99.90;;;;;;2091846;28;20036;-72
2023/02/02 00:36:01;;;;;;;8.93;3.03;;;7.70;99.90;;;;;;2092671;28;20082;-72
2023/02/02 00:37:01;;;;;;;8.93;3.47;;;7.70;99.90;;;;;;2092578;28;20146;-72
2023/02/02 00:38:02;;;;;;;10.35;3.30;;;7.70;99.90;;;;;;2092618;28;20032;-72
2023/02/02 00:39:02;;;;;;;10.38;3.20;;;7.70;99.90;;;;;;2092655;28;20429;-72
2023/02/02 00:40:03;;;;;;;9.07;3.25;;;7.70;99.90;;;;;;2090903;28;20725;-72
2023/02/02 00:41:04;;;;;;;11.13;3.80;;;7.70;99.90;;;;;;2091734;28;20036;-71
2023/02/02 00:42:05;;;;;;;10.68;3.78;;;7.80;99.90;;;;;;2090902;28;20112;-71
2023/02/02 00:43:05;;;;;;;10.93;3.17;;;7.70;99.90;;;;;;2091513;28;20067;-71
2023/02/02 00:45:25;;;;;;;7.90;3.03;;;7.70;99.90;;;;;;2092342;28;20033;-71
2023/02/02 00:46:26;;;;;;;8.73;3.55;;;7.70;99.90;;;;;;2088675;28;20040;-71
2023/02/02 00:47:27;;;;;;;12.30;3.92;;;7.70;99.90;;;;;;2092970;28;20018;-72
2023/02/02 00:48:28;;;;;;;12.02;4.25;;;7.70;99.90;;;;;;2092136;28;20126;-72
2023/02/02 00:49:29;;;;;;;8.25;3.95;;;7.70;99.90;;;;;;2093261;28;20062;-72
2023/02/02 00:50:30;;;;;;;7.93;3.38;;;7.70;99.90;;;;;;2092678;28;20098;-72
2023/02/02 00:51:30;;;;;;;9.98;3.65;;;7.70;99.90;;;;;;2092761;28;20032;-71
2023/02/02 00:52:31;;;;;;;12.02;3.85;;;7.70;99.90;;;;;;2092646;28;20032;-71
2023/02/02 00:53:31;;;;;;;10.32;3.75;;;7.70;99.90;;;;;;2093175;28;20033;-71
2023/02/02 00:54:32;;;;;;;13.13;3.78;;;7.70;99.90;;;;;;2094628;28;20341;-71
2023/02/02 00:55:32;;;;;;;12.75;4.22;;;7.70;99.90;;;;;;2095555;28;20097;-72
2023/02/02 00:56:33;;;;;;;11.93;4.20;;;7.70;99.90;;;;;;2093203;28;20051;-72
2023/02/02 00:57:33;;;;;;;8.68;3.58;;;7.70;99.90;;;;;;2093887;28;20037;-72
2023/02/02 00:58:34;;;;;;;7.85;3.22;;;7.70;99.90;;;;;;2092051;28;20174;-72
2023/02/02 00:59:34;;;;;;;12.15;4.07;;;7.70;99.90;;;;;;2091367;28;20032;-72
2023/02/02 01:00:36;;;;;;;10.13;4.22;;;7.70;99.90;;;;;;2091518;28;20196;-72
2023/02/02 01:01:37;;;;;;;11.63;4.32;;;7.70;99.90;;;;;;2091618;28;20048;-72
2023/02/02 01:02:37;;;;;;;9.13;4.00;;;7.80;99.90;;;;;;2093183;28;20036;-72
2023/02/02 01:03:38;;;;;;;10.77;5.05;;;7.70;99.90;;;;;;2093422;28;20122;-72
2023/02/02 01:04:39;;;;;;;11.93;4.35;;;7.70;99.90;;;;;;2095427;28;20051;-72
2023/02/02 01:05:39;;;;;;;11.85;4.50;;;7.70;99.90;;;;;;2094249;28;20024;-72
2023/02/02 01:06:40;;;;;;;9.15;4.10;;;7.70;99.90;;;;;;2091327;28;20079;-71
2023/02/02 01:07:40;;;;;;;11.57;4.60;;;7.70;99.90;;;;;;2090916;28;20066;-71
2023/02/02 01:08:41;;;;;;;13.00;4.55;;;7.80;99.90;;;;;;2091337;28;20035;-71
2023/02/02 01:09:41;;;;;;;9.80;4.03;;;7.80;99.90;;;;;;2091138;28;20097;-71
2023/02/02 01:10:42;;;;;;;9.23;4.22;;;7.80;99.90;;;;;;2092871;28;20024;-71
2023/02/02 01:11:42;;;;;;;11.45;4.55;;;7.80;99.90;;;;;;2090087;28;20025;-71
2023/02/02 01:12:43;;;;;;;15.40;4.80;;;7.80;99.90;;;;;;2091064;28;20112;-71
2023/02/02 01:13:44;;;;;;;9.55;4.10;;;7.80;99.90;;;;;;2090825;28;20071;-71
2023/02/02 01:14:44;;;;;;;14.60;4.25;;;7.80;99.90;;;;;;2089878;28;20041;-71
2023/02/02 01:15:45;;;;;;;11.07;4.88;;;7.80;99.90;;;;;;2092625;28;20036;-71
2023/02/02 01:16:45;;;;;;;10.02;4.45;;;7.80;99.90;;;;;;2090250;28;20017;-71
2023/02/02 01:17:46;;;;;;;8.45;4.00;;;7.80;99.90;;;;;;2092430;28;20033;-71
2023/02/02 01:18:47;;;;;;;13.07;4.30;;;7.80;99.90;;;;;;2090984;28;20023;-71
2023/02/02 01:19:48;;;;;;;12.25;4.70;;;7.80;99.90;;;;;;2092966;28;20077;-71
2023/02/02 01:21:13;;;;;;;9.25;4.07;;;7.80;99.90;;;;;;2095440;28;20036;-71
2023/02/02 01:22:14;;;;;;;13.05;4.32;;;7.80;99.90;;;;;;2092323;28;20024;-72
2023/02/02 01:23:14;;;;;;;11.65;4.05;;;7.80;99.90;;;;;;2090670;28;20039;-72
2023/02/02 01:24:15;;;;;;;11.57;4.82;;;7.80;99.90;;;;;;2091923;28;20017;-72
2023/02/02 01:25:15;;;;;;;16.80;5.65;;;7.80;99.90;;;;;;2093423;28;20039;-72
2023/02/02 01:26:16;;;;;;;13.23;4.97;;;7.80;99.90;;;;;;2092126;28;20464;-72
2023/02/02 01:27:17;;;;;;;13.57;5.70;;;7.80;99.90;;;;;;2092849;28;20020;-72
2023/02/02 01:28:17;;;;;;;11.85;5.18;;;7.80;99.90;;;;;;2091495;28;20025;-72
2023/02/02 01:29:18;;;;;;;12.55;4.85;;;7.80;99.90;;;;;;2092319;28;20024;-72
2023/02/02 01:30:18;;;;;;;10.77;4.40;;;7.80;99.90;;;;;;2092136;28;20036;-72
2023/02/02 01:31:19;;;;;;;10.45;3.95;;;7.80;99.90;;;;;;2092008;28;20036;-72
2023/02/02 01:32:20;;;;;;;10.50;4.22;;;7.80;99.90;;;;;;2091466;28;20040;-72
2023/02/02 01:33:21;;;;;;;10.18;3.70;;;7.80;99.90;;;;;;2090628;28;20283;-72
2023/02/02 01:34:21;;;;;;;13.57;4.40;;;7.90;99.90;;;;;;2090932;28;20033;-72
2023/02/02 01:35:22;;;;;;;11.35;3.40;;;7.80;99.90;;;;;;2092775;28;20032;-72
2023/02/02 01:36:23;;;;;;;8.48;3.60;;;7.90;99.90;;;;;;2091919;28;20038;-72
2023/02/02 01:37:24;;;;;;;8.32;3.50;;;7.90;99.90;;;;;;2090417;28;20480;-72
2023/02/02 01:38:24;;;;;;;8.60;3.20;;;7.90;99.90;;;;;;2089947;28;20264;-72
2023/02/02 01:39:25;;;;;;;11.50;2.97;;;7.90;99.90;;;;;;2092558;28;20037;-72
2023/02/02 01:40:26;;;;;;;6.95;3.22;;;7.90;99.90;;;;;;2089881;28;20043;-72
2023/02/02 01:41:27;;;;;;;7.57;3.22;;;7.90;99.90;;;;;;2088932;28;20772;-71
2023/02/02 01:42:28;;;;;;;11.82;3.50;;;7.90;99.90;;;;;;2091232;28;20028;-71
2023/02/02 01:43:40;;;;;;;12.63;3.28;;;7.90;99.90;;;;;;2092793;28;20037;-72
2023/02/02 01:45:08;;;;;;;7.43;2.75;;;7.90;99.90;;;;;;2091619;28;20035;-72
2023/02/02 01:46:12;;;;;;;11.63;3.40;;;7.90;99.90;;;;;;2092002;28;20037;-72
2023/02/02 01:47:13;;;;;;;9.52;3.40;;;7.90;99.90;;;;;;2092938;28;20028;-72
2023/02/02 01:48:14;;;;;;;9.57;3.45;;;7.90;99.90;;;;;;2093016;28;20028;-72
2023/02/02 01:49:19;;;;;;;9.32;3.58;;;7.90;99.90;;;;;;2093070;28;20032;-72
2023/02/02 01:50:23;;;;;;;8.90;3.33;;;7.90;99.90;;;;;;2091296;28;20032;-72
2023/02/02 01:51:33;;;;;;;14.35;3.55;;;7.90;99.90;;;;;;2093559;28;20116;-71
2023/02/02 01:52:34;;;;;;;10.05;3.72;;;7.90;99.90;;;;;;2092586;28;20028;-72
2023/02/02 01:53:35;;;;;;;11.00;3.35;;;7.90;99.90;;;;;;2095352;28;20051;-72
2023/02/02 01:54:43;;;;;;;8.93;3.55;;;7.90;99.90;;;;;;2094729;28;20024;-72
2023/02/02 01:55:47;;;;;;;9.68;2.97;;;8.00;99.90;;;;;;2091091;28;20021;-71
2023/02/02 01:56:54;;;;;;;10.32;4.30;;;8.00;99.90;;;;;;2092045;28;20028;-71
2023/02/02 01:58:09;;;;;;;9.77;3.00;;;8.00;99.90;;;;;;2092046;28;20591;-71
2023/02/02 01:59:13;;;;;;;8.93;3.28;;;8.00;99.90;;;;;;2090732;28;20052;-71
2023/02/02 02:00:15;;;;;;;9.57;3.47;;;8.00;99.90;;;;;;2092528;28;20391;-73
2023/02/02 02:01:16;;;;;;;10.00;3.85;;;8.00;99.90;;;;;;2090503;28;20020;-72
2023/02/02 02:02:17;;;;;;;9.98;3.80;;;8.00;99.90;;;;;;2093459;28;20112;-72
2023/02/02 02:03:20;;;;;;;14.90;4.10;;;8.00;99.90;;;;;;2094921;28;20079;-72
2023/02/02 02:04:23;;;;;;;10.13;3.92;;;8.00;99.90;;;;;;2092055;28;20016;-72
2023/02/02 02:05:28;;;;;;;14.80;4.50;;;8.00;99.90;;;;;;2091558;28;20056;-72
2023/02/02 02:06:28;;;;;;;14.40;4.43;;;8.00;99.90;;;;;;2091710;28;20024;-72
2023/02/02 02:07:29;;;;;;;14.50;5.25;;;8.00;99.90;;;;;;2089082;28;20029;-72
2023/02/02 02:08:36;;;;;;;9.65;4.22;;;8.00;99.90;;;;;;2092255;28;20020;-72
2023/02/02 02:09:37;;;;;;;18.67;5.70;;;8.00;99.90;;;;;;2091784;28;20020;-72
2023/02/02 02:10:37;;;;;;;12.82;4.97;;;8.00;99.90;;;;;;2093211;28;20033;-72
2023/02/02 02:11:38;;;;;;;14.20;4.78;;;8.00;99.90;;;;;;2089428;28;20077;-72
2023/02/02 02:12:38;;;;;;;13.98;5.30;;;8.00;99.90;;;;;;2092886;28;20087;-72
2023/02/02 02:17:16;;;;;;;14.00;5.75;;;8.10;99.90;;;;;;2090919;28;20063;-72
2023/02/02 02:18:57;;;;;;;15.32;6.22;;;8.00;99.90;;;;;;2069763;28;20124;-72
2023/02/02 02:27:04;;;;;;;23.45;7.97;;;8.00;99.90;;;;;;2091005;28;20748;-71
2023/02/02 02:28:37;;;;;;;20.10;7.80;;;8.00;99.90;;;;;;2089557;28;20024;-72
2023/02/02 02:30:02;;;;;;;20.13;7.82;;;8.00;99.90;;;;;;2089446;28;20391;-72
2023/02/02 02:31:18;;;;;;;21.58;7.75;;;8.00;99.90;;;;;;2088135;28;20116;-72
2023/02/02 02:32:37;;;;;;;19.63;7.28;;;8.00;99.90;;;;;;2090463;28;20032;-72
2023/02/02 02:33:49;;;;;;;18.40;7.32;;;8.00;99.90;;;;;;2091906;28;20028;-72
2023/02/02 02:35:04;;;;;;;20.63;8.07;;;8.00;99.90;;;;;;2090261;28;20020;-72
2023/02/02 02:36:55;;;;;;;23.98;7.78;;;8.10;99.90;;;;;;2090370;28;20450;-71
2023/02/02 02:37:59;;;;;;;20.35;7.45;;;8.00;99.90;;;;;;2071254;28;20359;-71
2023/02/02 02:39:23;;;;;;;24.25;7.50;;;8.00;99.90;;;;;;2091833;28;20040;-71
2023/02/02 02:40:35;;;;;;;20.60;7.65;;;8.10;99.90;;;;;;2090244;28;20021;-71
2023/02/02 02:41:41;;;;;;;21.90;7.75;;;8.10;99.90;;;;;;2090649;28;20032;-71
2023/02/02 02:42:48;;;;;;;24.83;7.85;;;8.10;99.90;;;;;;2091097;28;20056;-71
2023/02/02 02:43:57;;;;;;;21.92;7.15;;;8.10;99.90;;;;;;2090321;28;20016;-71
2023/02/02 02:45:01;;;;;;;27.40;8.00;;;8.10;99.90;;;;;;2091064;28;20491;-71
2023/02/02 02:46:03;;;;;;;25.65;8.35;;;8.20;99.90;;;;;;2090064;28;20037;-72
2023/02/02 02:47:04;;;;;;;27.50;8.35;;;8.20;99.90;;;;;;2090392;28;20021;-72
2023/02/02 02:48:09;;;;;;;27.38;8.88;;;8.20;99.90;;;;;;2092024;28;20063;-72
2023/02/02 02:49:11;;;;;;;24.63;8.15;;;8.20;99.90;;;;;;2090754;28;20067;-72
2023/02/02 02:50:12;;;;;;;21.63;7.80;;;8.20;99.90;;;;;;2091699;28;20094;-72
2023/02/02 02:51:37;;;;;;;27.67;9.07;;;8.20;99.90;;;;;;2091108;28;20074;-72
2023/02/02 02:52:39;;;;;;;22.30;8.07;;;8.20;99.90;;;;;;2090094;28;20025;-71
2023/02/02 02:53:40;;;;;;;32.83;8.27;;;8.20;99.90;;;;;;2092701;28;20029;-71
2023/02/02 02:54:50;;;;;;;21.38;7.68;;;8.20;99.90;;;;;;2089258;28;20028;-71
2023/02/02 02:56:05;;;;;;;25.95;8.70;;;8.30;99.90;;;;;;2094311;28;20035;-72
2023/02/02 02:57:11;;;;;;;25.83;7.88;;;8.20;99.90;;;;;;2094318;28;20024;-71
2023/02/02 02:58:31;;;;;;;23.23;8.02;;;8.20;99.90;;;;;;2090390;28;20021;-71
2023/02/02 02:59:53;;;;;;;18.92;7.13;;;8.20;99.90;;;;;;2091992;28;20044;-72
2023/02/02 03:01:06;;;;;;;27.90;8.23;;;8.30;99.90;;;;;;2090073;28;20021;-72
2023/02/02 03:02:36;;;;;;;20.27;7.28;;;8.20;99.90;;;;;;2091268;28;20098;-72
2023/02/02 03:03:58;;;;;;;21.75;7.22;;;8.20;99.90;;;;;;2089311;28;20392;-72
2023/02/02 03:05:18;;;;;;;25.15;6.65;;;8.20;99.90;;;;;;2091063;28;20029;-72
2023/02/02 03:06:27;;;;;;;28.67;7.13;;;8.20;99.90;;;;;;2089572;28;20051;-72
2023/02/02 03:07:34;;;;;;;15.68;6.28;;;8.20;99.90;;;;;;2090792;28;20055;-72
2023/02/02 03:08:54;;;;;;;17.88;5.85;;;8.20;99.90;;;;;;2092173;28;20466;-72
2023/02/02 03:09:57;;;;;;;21.48;6.30;;;8.20;99.90;;;;;;2091484;28;20040;-71
2023/02/02 03:11:01;;;;;;;22.10;6.20;;;8.30;99.90;;;;;;2093061;28;20043;-71
2023/02/02 03:12:02;;;;;;;18.50;6.20;;;8.20;99.90;;;;;;2092474;28;20035;-72
2023/02/02 03:13:08;;;;;;;16.63;5.38;;;8.30;99.90;;;;;;2091291;28;20021;-72
2023/02/02 03:14:08;;;;;;;14.60;5.63;;;8.30;99.90;;;;;;2090842;28;20099;-72
2023/02/02 03:15:09;;;;;;;18.65;5.88;;;8.30;99.90;;;;;;2091032;28;20025;-72
2023/02/02 03:16:10;;;;;;;17.55;6.15;;;8.30;99.90;;;;;;2092113;28;20491;-72
2023/02/02 03:17:11;;;;;;;17.45;6.20;;;8.30;99.90;;;;;;2092385;28;20036;-72
2023/02/02 03:18:17;;;;;;;15.60;5.15;;;8.30;99.90;;;;;;2091677;28;20086;-72
2023/02/02 03:19:18;;;;;;;12.18;5.03;;;8.30;99.90;;;;;;2091720;28;20017;-72
2023/02/02 03:20:19;;;;;;;18.85;5.10;;;8.30;99.90;;;;;;2092672;28;20489;-72
2023/02/02 03:21:20;;;;;;;19.85;6.03;;;8.30;99.90;;;;;;2093713;28;20157;-72
2023/02/02 03:22:21;;;;;;;18.50;5.43;;;8.30;99.90;;;;;;2090348;28;20040;-72
2023/02/02 03:23:22;;;;;;;17.67;5.32;;;8.30;99.90;;;;;;2094745;28;20637;-72
2023/02/02 03:24:22;;;;;;;13.98;4.05;;;8.30;99.90;;;;;;2095326;28;20580;-72
2023/02/02 03:25:23;;;;;;;15.57;4.78;;;8.30;99.90;;;;;;2091669;28;20144;-72
2023/02/02 03:26:24;;;;;;;15.52;4.30;;;8.30;99.90;;;;;;2093254;28;20423;-72
2023/02/02 03:27:25;;;;;;;12.27;4.05;;;8.30;99.90;;;;;;2093679;28;20024;-71
2023/02/02 03:28:27;;;;;;;12.15;4.43;;;8.30;99.90;;;;;;2095909;28;20061;-72
2023/02/02 03:29:28;;;;;;;14.93;4.32;;;8.30;99.90;;;;;;2096279;28;20031;-72
2023/02/02 03:30:29;;;;;;;13.45;3.97;;;8.30;99.90;;;;;;2093098;28;20365;-72
2023/02/02 03:31:29;;;;;;;12.80;3.83;;;8.30;99.90;;;;;;2091424;28;20027;-71
2023/02/02 03:32:30;;;;;;;12.13;4.10;;;8.30;99.90;;;;;;2094353;28;20051;-71
2023/02/02 03:33:35;;;;;;;12.77;3.28;;;8.30;99.90;;;;;;2093455;28;20024;-71
2023/02/02 03:34:36;;;;;;;13.48;2.92;;;8.30;99.90;;;;;;2092992;28;20701;-71
2023/02/02 03:35:36;;;;;;;13.68;3.50;;;8.30;99.90;;;;;;2092730;28;20071;-71
2023/02/02 03:36:37;;;;;;;10.80;3.28;;;8.30;99.90;;;;;;2092182;28;20033;-71
2023/02/02 03:37:37;;;;;;;11.35;3.60;;;8.30;99.90;;;;;;2092461;28;20113;-71
2023/02/02 03:38:38;;;;;;;15.00;3.65;;;8.30;99.90;;;;;;2091820;28;20021;-71
2023/02/02 03:39:38;;;;;;;8.70;2.92;;;8.30;99.90;;;;;;2092026;28;20075;-71
2023/02/02 03:40:39;;;;;;;10.93;3.38;;;8.30;99.90;;;;;;2094166;28;20037;-71
2023/02/02 03:41:40;;;;;;;8.95;2.78;;;8.30;99.90;;;;;;2090378;28;20039;-71
2023/02/02 03:42:40;;;;;;;9.07;3.25;;;8.30;99.90;;;;;;2091665;28;20032;-71
2023/02/02 03:43:41;;;;;;;13.70;3.58;;;8.30;99.90;;;;;;2092629;28;20029;-72
2023/02/02 03:44:41;;;;;;;12.57;3.40;;;8.30;99.90;;;;;;2092494;28;20125;-71
2023/02/02 03:45:42;;;;;;;15.40;3.58;;;8.30;99.90;;;;;;2091036;28;20079;-71
2023/02/02 03:46:42;;;;;;;11.90;3.80;;;8.30;99.90;;;;;;2090965;28;20111;-72
2023/02/02 03:47:43;;;;;;;20.10;5.70;;;8.30;99.90;;;;;;2091415;28;20055;-72
2023/02/02 03:48:43;;;;;;;14.73;4.80;;;8.30;99.90;;;;;;2093222;28;20020;-72
2023/02/02 03:49:44;;;;;;;11.73;4.78;;;8.30;99.90;;;;;;2091208;28;20055;-72
2023/02/02 03:50:44;;;;;;;14.95;3.75;;;8.30;99.90;;;;;;2091818;28;20029;-71
2023/02/02 03:51:45;;;;;;;11.48;3.60;;;8.30;99.90;;;;;;2093668;28;20032;-72
2023/02/02 03:52:45;;;;;;;10.63;4.18;;;8.30;99.90;;;;;;2091829;28;20104;-72
2023/02/02 03:53:47;;;;;;;9.52;4.63;;;8.30;99.90;;;;;;2091364;28;20049;-72
2023/02/02 03:54:48;;;;;;;8.95;3.75;;;8.30;99.90;;;;;;2093031;28;20025;-71
2023/02/02 03:55:48;;;;;;;11.27;4.70;;;8.30;99.90;;;;;;2091925;28;20556;-71
2023/02/02 03:56:49;;;;;;;9.07;4.00;;;8.30;99.90;;;;;;2093063;28;20021;-71
2023/02/02 03:57:49;;;;;;;10.43;4.35;;;8.30;99.90;;;;;;2092857;28;20063;-71
2023/02/02 03:58:50;;;;;;;10.52;4.82;;;8.30;99.90;;;;;;2091930;28;20036;-71
2023/02/02 03:59:50;;;;;;;11.00;4.22;;;8.30;99.90;;;;;;2092111;28;20021;-71
2023/02/02 04:00:51;;;;;;;11.88;4.70;;;8.30;99.90;;;;;;2088904;28;20028;-71
2023/02/02 04:01:52;;;;;;;12.10;4.95;;;8.30;99.90;;;;;;2093030;28;20029;-72
2023/02/02 04:02:53;;;;;;;10.18;4.10;;;8.30;99.90;;;;;;2093196;28;20107;-72
2023/02/02 04:03:55;;;;;;;9.48;4.68;;;8.30;99.90;;;;;;2094242;28;20020;-72
2023/02/02 04:04:55;;;;;;;11.82;4.97;;;8.40;99.90;;;;;;2091698;28;20027;-72
2023/02/02 04:05:56;;;;;;;9.70;4.60;;;8.30;99.90;;;;;;2093950;28;20504;-72
2023/02/02 04:06:57;;;;;;;8.55;4.55;;;8.30;99.90;;;;;;2095828;28;20045;-72
2023/02/02 04:07:58;;;;;;;11.73;4.72;;;8.30;99.90;;;;;;2093197;28;20139;-72
2023/02/02 04:08:58;;;;;;;9.02;4.78;;;8.30;99.90;;;;;;2091559;28;20021;-72
2023/02/02 04:09:59;;;;;;;11.25;5.00;;;8.30;99.90;;;;;;2090760;28;20020;-72
2023/02/02 04:10:59;;;;;;;12.25;5.10;;;8.40;99.90;;;;;;2092071;28;21248;-72
2023/02/02 04:12:00;;;;;;;15.38;4.85;;;8.40;99.90;;;;;;2093538;28;20028;-72
2023/02/02 04:13:00;;;;;;;10.80;4.47;;;8.40;99.90;;;;;;2093524;28;20051;-72
2023/02/02 04:14:01;;;;;;;11.48;4.35;;;8.30;99.90;;;;;;2093195;28;20397;-72
2023/02/02 04:15:02;;;;;;;11.02;4.18;;;8.40;99.90;;;;;;2093213;28;20022;-72
2023/02/02 04:16:02;;;;;;;13.00;5.03;;;8.40;99.90;;;;;;2092629;28;20959;-72
2023/02/02 04:17:03;;;;;;;11.70;4.30;;;8.40;99.90;;;;;;2093274;28;20021;-72
2023/02/02 04:18:04;;;;;;;12.07;4.82;;;8.40;99.90;;;;;;2093320;28;20051;-72
2023/02/02 04:19:04;;;;;;;13.27;5.20;;;8.30;99.90;;;;;;2094208;28;20020;-72
2023/02/02 04:20:06;;;;;;;12.60;7.05;;;8.40;99.90;;;;;;2092573;28;20021;-72
2023/02/02 04:21:07;;;;;;;12.27;5.55;;;8.40;99.90;;;;;;2092211;28;20023;-72
2023/02/02 04:22:08;;;;;;;13.40;5.43;;;8.40;99.90;;;;;;2093725;28;20048;-72
2023/02/02 04:23:08;;;;;;;11.75;6.57;;;8.40;99.90;;;;;;2091672;28;20025;-72
2023/02/02 04:24:11;;;;;;;13.98;5.65;;;8.40;99.90;;;;;;2092625;28;20064;-72
2023/02/02 04:25:11;;;;;;;9.88;5.25;;;8.40;99.90;;;;;;2092277;28;20021;-72
2023/02/02 04:26:12;;;;;;;10.30;5.20;;;8.40;99.90;;;;;;2094114;28;20101;-72
2023/02/02 04:27:12;;;;;;;10.52;5.93;;;8.40;99.90;;;;;;2092224;28;20111;-72
2023/02/02 04:28:13;;;;;;;14.20;6.25;;;8.40;99.90;;;;;;2091250;28;20028;-72
2023/02/02 04:29:14;;;;;;;16.55;6.63;;;8.40;99.90;;;;;;2093603;28;20036;-72
2023/02/02 04:30:14;;;;;;;12.50;5.90;;;8.40;99.90;;;;;;2092906;28;20024;-72
2023/02/02 04:31:15;;;;;;;12.30;6.70;;;8.40;99.90;;;;;;2092219;28;20074;-71
2023/02/02 04:32:17;;;;;;;12.38;5.75;;;8.40;99.90;;;;;;2092762;28;20397;-71
2023/02/02 04:33:19;;;;;;;16.13;6.60;;;8.50;99.90;;;;;;2092273;28;20362;-72
2023/02/02 04:34:19;;;;;;;13.18;6.60;;;8.50;99.90;;;;;;2091192;28;20533;-71
2023/02/02 04:35:20;;;;;;;18.13;6.80;;;8.50;99.90;;;;;;2092922;28;20396;-72
2023/02/02 04:36:21;;;;;;;11.73;6.85;;;8.50;99.90;;;;;;2092740;28;20044;-72
2023/02/02 04:37:21;;;;;;;9.32;6.32;;;8.50;99.90;;;;;;2093521;28;20105;-71
2023/02/02 04:38:22;;;;;;;13.45;7.38;;;8.50;99.90;;;;;;2092295;28;20039;-71
2023/02/02 04:39:22;;;;;;;10.57;6.25;;;8.50;99.90;;;;;;2091384;28;20032;-72
2023/02/02 04:40:23;;;;;;;14.23;6.38;;;8.50;99.90;;;;;;2091264;28;20024;-72
2023/02/02 04:41:24;;;;;;;13.57;6.13;;;8.50;99.90;;;;;;2092839;28;20028;-72
2023/02/02 04:42:24;;;;;;;11.23;6.05;;;8.50;99.90;;;;;;2094166;28;20032;-72
2023/02/02 04:43:25;;;;;;;10.30;6.05;;;8.50;99.90;;;;;;2093293;28;20434;-72
2023/02/02 04:44:25;;;;;;;11.05;6.53;;;8.50;99.90;;;;;;2091303;28;20416;-72
2023/02/02 04:45:26;;;;;;;13.77;7.18;;;8.50;99.90;;;;;;2090696;28;20384;-72
2023/02/02 04:46:27;;;;;;;16.88;7.32;;;8.50;99.90;;;;;;2091576;28;20021;-72
2023/02/02 04:47:27;;;;;;;15.73;7.38;;;8.50;99.90;;;;;;2091946;28;20017;-72
2023/02/02 04:48:29;;;;;;;11.40;7.65;;;8.50;99.90;;;;;;2091817;28;20025;-72
2023/02/02 04:49:29;;;;;;;11.93;6.88;;;8.50;99.90;;;;;;2091680;28;20570;-72
2023/02/02 04:50:30;;;;;;;14.57;8.20;;;8.60;99.90;;;;;;2091675;28;21001;-72
2023/02/02 04:51:30;;;;;;;14.55;8.50;;;8.50;99.90;;;;;;2092181;28;20503;-72
2023/02/02 04:52:31;;;;;;;20.52;9.27;;;8.60;99.90;;;;;;2093569;28;20028;-72
2023/02/02 04:53:31;;;;;;;16.65;8.82;;;8.50;99.90;;;;;;2091521;28;20098;-72
2023/02/02 04:54:33;;;;;;;17.70;9.90;;;8.50;99.90;;;;;;2092144;28;20059;-72
2023/02/02 04:55:37;;;;;;;16.45;9.63;;;8.50;99.90;;;;;;2091859;28;20100;-72
2023/02/02 04:56:38;;;;;;;17.42;10.18;;;8.60;99.90;;;;;;2092621;28;20025;-72
2023/02/02 04:57:38;;;;;;;22.30;10.35;;;8.60;99.90;;;;;;2092087;28;20035;-72
2023/02/02 04:58:39;;;;;;;20.17;11.32;;;8.50;99.90;;;;;;2093308;28;20056;-72
2023/02/02 04:59:40;;;;;;;20.50;10.43;;;8.60;99.90;;;;;;2090809;28;20043;-72
2023/02/02 05:00:40;;;;;;;17.15;10.13;;;8.60;99.90;;;;;;2092849;28;20112;-72
2023/02/02 05:01:41;;;;;;;20.17;11.55;;;8.60;99.90;;;;;;2092299;28;20029;-72
2023/02/02 05:02:42;;;;;;;21.33;12.43;;;8.50;99.90;;;;;;2093911;28;20040;-72
2023/02/02 05:03:43;;;;;;;20.27;11.65;;;8.50;99.90;;;;;;2091462;28;20448;-71
2023/02/02 05:04:43;;;;;;;26.35;12.25;;;8.50;99.90;;;;;;2092063;28;20568;-71
2023/02/02 05:05:44;;;;;;;20.10;12.40;;;8.50;99.90;;;;;;2092363;28;20048;-71
2023/02/02 05:06:44;;;;;;;24.27;12.02;;;8.50;99.90;;;;;;2090716;28;20040;-71
2023/02/02 05:07:45;;;;;;;22.63;12.50;;;8.50;99.90;;;;;;2091044;28;20035;-71
2023/02/02 05:08:47;;;;;;;23.98;12.98;;;8.50;99.90;;;;;;2091027;28;20016;-72
2023/02/02 05:09:48;;;;;;;25.35;12.48;;;8.60;99.90;;;;;;2092125;28;20021;-72
2023/02/02 05:10:49;;;;;;;27.00;12.82;;;8.60;99.90;;;;;;2093454;28;20589;-72
2023/02/02 05:11:49;;;;;;;28.67;14.00;;;8.60;99.90;;;;;;2092667;28;20123;-72
2023/02/02 05:12:52;;;;;;;23.23;12.90;;;8.60;99.90;;;;;;2092445;28;20021;-72
2023/02/02 05:13:53;;;;;;;30.83;15.05;;;8.60;99.90;;;;;;2092181;28;20417;-72
2023/02/02 05:14:54;;;;;;;29.08;13.60;;;8.60;99.90;;;;;;2091717;28;20049;-72
2023/02/02 05:15:55;;;;;;;30.88;13.65;;;8.60;99.90;;;;;;2093172;28;20028;-72
2023/02/02 05:16:55;;;;;;;29.88;13.70;;;8.60;99.90;;;;;;2092576;28;20021;-72
2023/02/02 05:17:56;;;;;;;28.88;13.77;;;8.60;99.90;;;;;;2090749;28;20632;-72
2023/02/02 05:18:58;;;;;;;22.58;13.40;;;8.60;99.90;;;;;;2093633;28;20032;-72
2023/02/02 05:19:58;;;;;;;26.13;12.85;;;8.60;99.90;;;;;;2091062;28;20425;-72
2023/02/02 05:21:00;;;;;;;30.95;14.00;;;8.60;99.90;;;;;;2091444;28;20429;-72
2023/02/02 05:22:01;;;;;;;30.67;14.35;;;8.60;99.90;;;;;;2092308;28;20108;-72
2023/02/02 05:23:01;;;;;;;33.00;14.02;;;8.60;99.90;;;;;;2093088;28;20033;-72
2023/02/02 05:24:02;;;;;;;31.45;13.98;;;8.60;99.90;;;;;;2091341;28;20028;-72
2023/02/02 05:25:04;;;;;;;30.00;12.55;;;8.60;99.90;;;;;;2093210;28;20575;-72
2023/02/02 05:26:05;;;;;;;29.65;12.98;;;8.60;99.90;;;;;;2094164;28;20028;-72
2023/02/02 05:27:05;;;;;;;33.05;12.88;;;8.60;99.90;;;;;;2091209;28;20484;-72
2023/02/02 05:28:06;;;;;;;34.28;13.52;;;8.60;99.90;;;;;;2090816;28;20059;-72
2023/02/02 05:29:08;;;;;;;31.48;13.38;;;8.60;99.90;;;;;;2090770;28;20020;-72
2023/02/02 05:30:10;;;;;;;31.52;13.65;;;8.60;99.90;;;;;;2090107;28;20059;-71
2023/02/02 05:31:11;;;;;;;30.23;12.88;;;8.60;99.90;;;;;;2089622;28;20070;-72
2023/02/02 05:32:12;;;;;;;28.58;13.73;;;8.60;99.90;;;;;;2091624;28;20029;-72
2023/02/02 05:33:13;;;;;;;37.47;13.65;;;8.70;99.90;;;;;;2093467;28;20140;-72
2023/02/02 05:34:13;;;;;;;36.30;13.25;;;8.60;99.90;;;;;;2092768;28;20020;-72
2023/02/02 05:35:14;;;;;;;37.13;13.52;;;8.60;99.90;;;;;;2091105;28;20025;-72
2023/02/02 05:36:14;;;;;;;28.77;11.68;;;8.60;99.90;;;;;;2091444;28;20037;-72
2023/02/02 05:37:15;;;;;;;27.75;12.30;;;8.60;99.90;;;;;;2092545;28;20024;-72
2023/02/02 05:38:16;;;;;;;30.88;12.50;;;8.60;99.90;;;;;;2092203;28;20051;-72
2023/02/02 05:39:17;;;;;;;27.83;11.57;;;8.60;99.90;;;;;;2091743;28;20546;-72